sensor_id;sensor_type;location;lat;lon;timestamp;temperature;humidity
43671;DHT22;29267;50.906;7.248;2023-04-03T00:01:35;2.40;99.90
43671;DHT22;29267;50.906;7.248;2023-04-03T00:04:04;2.30;99.90
43671;DHT22;29267;50.906;7.248;2023-04-03T00:06:29;2.30;99.90
43671;DHT22;29267;50.906;7.248;2023-04-03T00:08:55;2.30;99.90
43671;DHT22;29267;50.906;7.248;2023-04-03T00:11:21;2.30;99.90
43671;DHT22;29267;50.906;7.248;2023-04-03T00:13:47;2.30;99.90
43671;DHT22;29267;50.906;7.248;2023-04-03T00:16:12;2.40;99.90
43671;DHT22;29267;50.906;7.248;2023-04-03T00:18:39;2.40;99.90
43671;DHT22;29267;50.906;7.248;2023-04-03T00:21:05;2.40;99.90
43671;DHT22;29267;50.906;7.248;2023-04-03T00:23:31;2.30;99.90
43671;DHT22;29267;50.906;7.248;2023-04-03T00:25:57;2.30;99.90
43671;DHT22;29267;50.906;7.248;2023-04-03T00:28:23;2.30;99.90
43671;DHT22;29267;50.906;7.248;2023-04-03T00:30:49;2.30;99.90
43671;DHT22;29267;50.906;7.248;2023-04-03T00:33:15;2.40;99.90
43671;DHT22;29267;50.906;7.248;2023-04-03T00:35:41;2.30;99.90
43671;DHT22;29267;50.906;7.248;2023-04-03T00:38:07;2.30;99.90
43671;DHT22;29267;50.906;7.248;2023-04-03T00:40:38;2.30;99.90
43671;DHT22;29267;50.906;7.248;2023-04-03T00:43:33;2.30;99.90
43671;DHT22;29267;50.906;7.248;2023-04-03T00:45:59;2.30;99.90
43671;DHT22;29267;50.906;7.248;2023-04-03T00:48:39;2.30;99.90
43671;DHT22;29267;50.906;7.248;2023-04-03T00:51:08;2.30;99.90
43671;DHT22;29267;50.906;7.248;2023-04-03T00:53:42;2.40;99.90
43671;DHT22;29267;50.906;7.248;2023-04-03T00:56:11;2.50;99.90
43671;DHT22;29267;50.906;7.248;2023-04-03T00:58:42;2.50;99.90
43671;DHT22;29267;50.906;7.248;2023-04-03T01:01:12;2.50;99.90
43671;DHT22;29267;50.906;7.248;2023-04-03T01:03:39;2.60;99.90
43671;DHT22;29267;50.906;7.248;2023-04-03T01:06:05;2.60;99.90
43671;DHT22;29267;50.906;7.248;2023-04-03T01:08:31;2.50;99.90
43671;DHT22;29267;50.906;7.248;2023-04-03T01:10:57;2.50;99.90
43671;DHT22;29267;50.906;7.248;2023-04-03T01:13:29;2.40;99.90
43671;DHT22;29267;50.906;7.248;2023-04-03T01:15:56;2.40;99.90
43671;DHT22;29267;50.906;7.248;2023-04-03T01:18:24;2.40;99.90
43671;DHT22;29267;50.906;7.248;2023-04-03T01:23:53;2.40;99.90
43671;DHT22;29267;50.906;7.248;2023-04-03T01:26:20;2.40;99.90
43671;DHT22;29267;50.906;7.248;2023-04-03T01:28:46;2.20;99.90
43671;DHT22;29267;50.906;7.248;2023-04-03T01:31:18;2.20;99.90
43671;DHT22;29267;50.906;7.248;2023-04-03T01:33:45;2.20;99.90
43671;DHT22;29267;50.906;7.248;2023-04-03T01:36:17;2.20;99.90
43671;DHT22;29267;50.906;7.248;2023-04-03T01:38:43;2.20;99.90
43671;DHT22;29267;50.906;7.248;2023-04-03T01:43:36;2.20;99.90
43671;DHT22;29267;50.906;7.248;2023-04-03T01:46:02;2.20;99.90
43671;DHT22;29267;50.906;7.248;2023-04-03T01:48:27;2.10;99.90
43671;DHT22;29267;50.906;7.248;2023-04-03T01:50:53;2.10;99.90
43671;DHT22;29267;50.906;7.248;2023-04-03T01:53:19;2.00;99.90
43671;DHT22;29267;50.906;7.248;2023-04-03T01:55:45;1.90;99.90
43671;DHT22;29267;50.906;7.248;2023-04-03T01:58:10;1.90;99.90
43671;DHT22;29267;50.906;7.248;2023-04-03T02:00:36;1.90;99.90
43671;DHT22;29267;50.906;7.248;2023-04-03T02:03:02;1.90;99.90
43671;DHT22;29267;50.906;7.248;2023-04-03T02:05:28;1.80;99.90
43671;DHT22;29267;50.906;7.248;2023-04-03T02:07:54;1.80;99.90
43671;DHT22;29267;50.906;7.248;2023-04-03T02:10:20;1.90;99.90
43671;DHT22;29267;50.906;7.248;2023-04-03T02:12:45;1.90;99.90
43671;DHT22;29267;50.906;7.248;2023-04-03T02:15:11;1.90;99.90
43671;DHT22;29267;50.906;7.248;2023-04-03T02:17:36;1.90;99.90
43671;DHT22;29267;50.906;7.248;2023-04-03T02:20:03;1.90;99.90
43671;DHT22;29267;50.906;7.248;2023-04-03T02:22:28;1.80;99.90
43671;DHT22;29267;50.906;7.248;2023-04-03T02:24:54;1.80;99.90
43671;DHT22;29267;50.906;7.248;2023-04-03T02:27:20;1.70;99.90
43671;DHT22;29267;50.906;7.248;2023-04-03T02:29:46;1.70;99.90
43671;DHT22;29267;50.906;7.248;2023-04-03T02:32:11;1.70;99.90
43671;DHT22;29267;50.906;7.248;2023-04-03T02:34:37;1.60;99.90
43671;DHT22;29267;50.906;7.248;2023-04-03T02:37:02;1.70;99.90
43671;DHT22;29267;50.906;7.248;2023-04-03T02:39:28;1.60;99.90
43671;DHT22;29267;50.906;7.248;2023-04-03T02:41:54;1.60;99.90
43671;DHT22;29267;50.906;7.248;2023-04-03T02:44:19;1.60;99.90
43671;DHT22;29267;50.906;7.248;2023-04-03T02:46:45;1.70;99.90
43671;DHT22;29267;50.906;7.248;2023-04-03T02:49:10;1.70;99.90
43671;DHT22;29267;50.906;7.248;2023-04-03T02:51:36;1.70;99.90
43671;DHT22;29267;50.906;7.248;2023-04-03T02:54:01;1.70;99.90
43671;DHT22;29267;50.906;7.248;2023-04-03T02:56:27;1.70;99.90
43671;DHT22;29267;50.906;7.248;2023-04-03T02:58:53;1.70;99.90
43671;DHT22;29267;50.906;7.248;2023-04-03T03:01:19;1.70;99.90
43671;DHT22;29267;50.906;7.248;2023-04-03T03:03:44;1.60;99.90
43671;DHT22;29267;50.906;7.248;2023-04-03T03:06:13;1.60;99.90
43671;DHT22;29267;50.906;7.248;2023-04-03T03:08:39;1.60;99.90
43671;DHT22;29267;50.906;7.248;2023-04-03T03:11:05;1.60;99.90
43671;DHT22;29267;50.906;7.248;2023-04-03T03:13:31;1.50;99.90
43671;DHT22;29267;50.906;7.248;2023-04-03T03:15:57;1.50;99.90
43671;DHT22;29267;50.906;7.248;2023-04-03T03:18:23;1.40;99.90
43671;DHT22;29267;50.906;7.248;2023-04-03T03:20:56;1.40;99.90
43671;DHT22;29267;50.906;7.248;2023-04-03T03:23:23;1.30;99.90
43671;DHT22;29267;50.906;7.248;2023-04-03T03:25:57;1.30;99.90
43671;DHT22;29267;50.906;7.248;2023-04-03T03:28:23;1.30;99.90
43671;DHT22;29267;50.906;7.248;2023-04-03T03:30:49;1.20;99.90
43671;DHT22;29267;50.906;7.248;2023-04-03T03:33:15;1.20;99.90
43671;DHT22;29267;50.906;7.248;2023-04-03T03:35:42;1.20;99.90
43671;DHT22;29267;50.906;7.248;2023-04-03T03:38:08;1.20;99.90
43671;DHT22;29267;50.906;7.248;2023-04-03T03:40:34;1.10;99.90
43671;DHT22;29267;50.906;7.248;2023-04-03T03:43:00;1.20;99.90
43671;DHT22;29267;50.906;7.248;2023-04-03T03:45:25;1.10;99.90
43671;DHT22;29267;50.906;7.248;2023-04-03T03:47:51;1.10;99.90
43671;DHT22;29267;50.906;7.248;2023-04-03T03:50:16;1.10;99.90
43671;DHT22;29267;50.906;7.248;2023-04-03T03:52:42;1.10;99.90
43671;DHT22;29267;50.906;7.248;2023-04-03T03:55:08;1.10;99.90
43671;DHT22;29267;50.906;7.248;2023-04-03T03:57:33;1.10;99.90
43671;DHT22;29267;50.906;7.248;2023-04-03T03:59:59;1.10;99.90
43671;DHT22;29267;50.906;7.248;2023-04-03T04:02:24;1.10;99.90
43671;DHT22;29267;50.906;7.248;2023-04-03T04:04:50;1.10;99.90
43671;DHT22;29267;50.906;7.248;2023-04-03T04:07:16;1.10;99.90
43671;DHT22;29267;50.906;7.248;2023-04-03T04:09:41;1.10;99.90
43671;DHT22;29267;50.906;7.248;2023-04-03T04:12:07;1.00;99.90
43671;DHT22;29267;50.906;7.248;2023-04-03T04:14:33;1.00;99.90
43671;DHT22;29267;50.906;7.248;2023-04-03T04:16:58;1.00;99.90
43671;DHT22;29267;50.906;7.248;2023-04-03T04:19:24;1.00;99.90
43671;DHT22;29267;50.906;7.248;2023-04-03T04:21:49;0.90;99.90
43671;DHT22;29267;50.906;7.248;2023-04-03T04:24:15;0.80;99.90
43671;DHT22;29267;50.906;7.248;2023-04-03T04:26:41;0.90;99.90
43671;DHT22;29267;50.906;7.248;2023-04-03T04:29:09;0.80;99.90
43671;DHT22;29267;50.906;7.248;2023-04-03T04:31:35;0.80;99.90
43671;DHT22;29267;50.906;7.248;2023-04-03T04:34:00;0.80;99.90
43671;DHT22;29267;50.906;7.248;2023-04-03T04:36:26;0.80;99.90
43671;DHT22;29267;50.906;7.248;2023-04-03T04:38:51;0.80;99.90
43671;DHT22;29267;50.906;7.248;2023-04-03T04:41:20;0.70;99.90
43671;DHT22;29267;50.906;7.248;2023-04-03T04:43:48;0.70;99.90
43671;DHT22;29267;50.906;7.248;2023-04-03T04:46:14;0.70;99.90
43671;DHT22;29267;50.906;7.248;2023-04-03T04:48:40;0.70;99.90
43671;DHT22;29267;50.906;7.248;2023-04-03T04:51:06;0.60;99.90
43671;DHT22;29267;50.906;7.248;2023-04-03T04:53:31;0.60;99.90
43671;DHT22;29267;50.906;7.248;2023-04-03T04:55:57;0.60;99.90
43671;DHT22;29267;50.906;7.248;2023-04-03T04:58:23;0.60;99.90
43671;DHT22;29267;50.906;7.248;2023-04-03T05:00:48;0.60;99.90
43671;DHT22;29267;50.906;7.248;2023-04-03T05:03:14;0.50;99.90
43671;DHT22;29267;50.906;7.248;2023-04-03T05:05:40;0.50;99.90
43671;DHT22;29267;50.906;7.248;2023-04-03T05:08:06;0.60;99.90
43671;DHT22;29267;50.906;7.248;2023-04-03T05:10:33;0.60;99.90
43671;DHT22;29267;50.906;7.248;2023-04-03T05:12:59;0.50;99.90
43671;DHT22;29267;50.906;7.248;2023-04-03T05:15:25;0.60;99.90
43671;DHT22;29267;50.906;7.248;2023-04-03T05:17:50;0.60;99.90
43671;DHT22;29267;50.906;7.248;2023-04-03T05:20:17;0.70;99.90
43671;DHT22;29267;50.906;7.248;2023-04-03T05:22:42;0.80;99.90
43671;DHT22;29267;50.906;7.248;2023-04-03T05:25:08;0.90;99.90
43671;DHT22;29267;50.906;7.248;2023-04-03T05:27:34;0.90;99.90
43671;DHT22;29267;50.906;7.248;2023-04-03T05:29:59;1.00;99.90
43671;DHT22;29267;50.906;7.248;2023-04-03T05:32:26;1.00;99.90
43671;DHT22;29267;50.906;7.248;2023-04-03T05:34:53;1.00;99.90
43671;DHT22;29267;50.906;7.248;2023-04-03T05:37:18;1.00;99.90
43671;DHT22;29267;50.906;7.248;2023-04-03T05:39:44;1.10;99.90
43671;DHT22;29267;50.906;7.248;2023-04-03T05:42:09;1.20;99.90
43671;DHT22;29267;50.906;7.248;2023-04-03T05:44:37;1.40;99.90
43671;DHT22;29267;50.906;7.248;2023-04-03T05:47:03;1.50;99.90
43671;DHT22;29267;50.906;7.248;2023-04-03T05:49:28;1.60;99.90
43671;DHT22;29267;50.906;7.248;2023-04-03T05:51:54;1.70;99.90
43671;DHT22;29267;50.906;7.248;2023-04-03T05:54:27;1.80;99.90
43671;DHT22;29267;50.906;7.248;2023-04-03T05:56:54;1.90;99.90
43671;DHT22;29267;50.906;7.248;2023-04-03T05:59:20;2.00;99.90
43671;DHT22;29267;50.906;7.248;2023-04-03T06:01:47;2.20;99.90
43671;DHT22;29267;50.906;7.248;2023-04-03T06:04:13;2.60;99.90
43671;DHT22;29267;50.906;7.248;2023-04-03T06:06:50;3.10;99.90
43671;DHT22;29267;50.906;7.248;2023-04-03T06:09:20;3.70;99.90
43671;DHT22;29267;50.906;7.248;2023-04-03T06:11:46;4.40;99.90
43671;DHT22;29267;50.906;7.248;2023-04-03T06:14:13;5.60;99.90
43671;DHT22;29267;50.906;7.248;2023-04-03T06:16:39;6.60;99.90
43671;DHT22;29267;50.906;7.248;2023-04-03T06:19:05;7.50;99.90
43671;DHT22;29267;50.906;7.248;2023-04-03T06:21:31;8.40;99.90
43671;DHT22;29267;50.906;7.248;2023-04-03T06:23:57;8.20;98.90
43671;DHT22;29267;50.906;7.248;2023-04-03T06:26:22;7.60;99.60
43671;DHT22;29267;50.906;7.248;2023-04-03T06:28:48;7.10;99.90
43671;DHT22;29267;50.906;7.248;2023-04-03T06:31:13;7.10;99.90
43671;DHT22;29267;50.906;7.248;2023-04-03T06:33:39;6.90;99.90
43671;DHT22;29267;50.906;7.248;2023-04-03T06:36:05;6.70;99.90
43671;DHT22;29267;50.906;7.248;2023-04-03T06:38:33;6.70;99.90
43671;DHT22;29267;50.906;7.248;2023-04-03T06:40:59;6.90;99.90
43671;DHT22;29267;50.906;7.248;2023-04-03T06:43:25;7.00;99.90
43671;DHT22;29267;50.906;7.248;2023-04-03T06:45:51;6.90;99.90
43671;DHT22;29267;50.906;7.248;2023-04-03T06:48:17;7.10;99.90
43671;DHT22;29267;50.906;7.248;2023-04-03T06:50:43;7.40;99.90
43671;DHT22;29267;50.906;7.248;2023-04-03T06:53:09;7.90;99.60
43671;DHT22;29267;50.906;7.248;2023-04-03T06:55:35;8.30;98.70
43671;DHT22;29267;50.906;7.248;2023-04-03T06:58:01;8.30;99.00
43671;DHT22;29267;50.906;7.248;2023-04-03T07:00:27;9.10;98.50
43671;DHT22;29267;50.906;7.248;2023-04-03T07:02:53;10.10;97.20
43671;DHT22;29267;50.906;7.248;2023-04-03T07:05:19;11.40;95.30
43671;DHT22;29267;50.906;7.248;2023-04-03T07:07:45;12.40;93.50
43671;DHT22;29267;50.906;7.248;2023-04-03T07:10:11;12.10;93.10
43671;DHT22;29267;50.906;7.248;2023-04-03T07:12:36;12.50;92.00
43671;DHT22;29267;50.906;7.248;2023-04-03T07:15:04;13.80;90.10
43671;DHT22;29267;50.906;7.248;2023-04-03T07:17:30;14.50;89.00
43671;DHT22;29267;50.906;7.248;2023-04-03T07:19:56;14.60;87.50
43671;DHT22;29267;50.906;7.248;2023-04-03T07:22:22;14.70;82.90
43671;DHT22;29267;50.906;7.248;2023-04-03T07:24:47;14.80;84.30
43671;DHT22;29267;50.906;7.248;2023-04-03T07:27:13;15.20;82.10
43671;DHT22;29267;50.906;7.248;2023-04-03T07:29:39;15.00;81.40
43671;DHT22;29267;50.906;7.248;2023-04-03T07:32:05;14.70;83.90
43671;DHT22;29267;50.906;7.248;2023-04-03T07:34:32;15.20;80.40
43671;DHT22;29267;50.906;7.248;2023-04-03T07:36:58;14.60;81.00
43671;DHT22;29267;50.906;7.248;2023-04-03T07:39:24;15.30;79.20
43671;DHT22;29267;50.906;7.248;2023-04-03T07:41:51;15.70;78.80
43671;DHT22;29267;50.906;7.248;2023-04-03T07:44:17;14.20;76.90
43671;DHT22;29267;50.906;7.248;2023-04-03T07:46:43;13.60;79.80
43671;DHT22;29267;50.906;7.248;2023-04-03T07:49:09;13.90;81.50
43671;DHT22;29267;50.906;7.248;2023-04-03T07:51:34;14.40;80.00
43671;DHT22;29267;50.906;7.248;2023-04-03T07:54:00;15.60;77.70
43671;DHT22;29267;50.906;7.248;2023-04-03T07:56:26;15.90;77.80
43671;DHT22;29267;50.906;7.248;2023-04-03T07:58:51;15.00;74.90
43671;DHT22;29267;50.906;7.248;2023-04-03T08:01:17;14.20;80.00
43671;DHT22;29267;50.906;7.248;2023-04-03T08:03:43;15.10;78.60
43671;DHT22;29267;50.906;7.248;2023-04-03T08:06:09;15.70;76.00
43671;DHT22;29267;50.906;7.248;2023-04-03T08:08:35;15.80;75.80
43671;DHT22;29267;50.906;7.248;2023-04-03T08:11:02;15.30;76.20
43671;DHT22;29267;50.906;7.248;2023-04-03T08:13:28;15.50;74.50
43671;DHT22;29267;50.906;7.248;2023-04-03T08:15:55;15.30;75.30
43671;DHT22;29267;50.906;7.248;2023-04-03T08:18:23;15.20;75.60
43671;DHT22;29267;50.906;7.248;2023-04-03T08:20:50;14.60;78.60
43671;DHT22;29267;50.906;7.248;2023-04-03T08:23:17;15.20;73.40
43671;DHT22;29267;50.906;7.248;2023-04-03T08:25:43;15.40;72.70
43671;DHT22;29267;50.906;7.248;2023-04-03T08:28:10;14.00;73.80
43671;DHT22;29267;50.906;7.248;2023-04-03T08:30:39;13.80;75.80
43671;DHT22;29267;50.906;7.248;2023-04-03T08:33:05;13.90;73.60
43671;DHT22;29267;50.906;7.248;2023-04-03T08:35:31;13.80;75.60
43671;DHT22;29267;50.906;7.248;2023-04-03T08:37:57;13.70;75.30
43671;DHT22;29267;50.906;7.248;2023-04-03T08:40:23;13.50;73.70
43671;DHT22;29267;50.906;7.248;2023-04-03T08:45:52;14.10;73.40
43671;DHT22;29267;50.906;7.248;2023-04-03T08:50:47;14.20;72.00
43671;DHT22;29267;50.906;7.248;2023-04-03T08:53:17;14.30;71.70
43671;DHT22;29267;50.906;7.248;2023-04-03T08:55:46;13.80;70.40
43671;DHT22;29267;50.906;7.248;2023-04-03T08:58:16;14.00;72.10
43671;DHT22;29267;50.906;7.248;2023-04-03T09:00:58;13.60;72.30
43671;DHT22;29267;50.906;7.248;2023-04-03T09:03:24;14.00;73.80
43671;DHT22;29267;50.906;7.248;2023-04-03T09:08:40;13.60;72.80
43671;DHT22;29267;50.906;7.248;2023-04-03T09:11:27;14.00;72.90
43671;DHT22;29267;50.906;7.248;2023-04-03T09:17:21;13.50;69.10
43671;DHT22;29267;50.906;7.248;2023-04-03T09:22:35;13.20;68.90
43671;DHT22;29267;50.906;7.248;2023-04-03T09:25:15;13.80;72.50
43671;DHT22;29267;50.906;7.248;2023-04-03T09:27:42;13.90;68.80
43671;DHT22;29267;50.906;7.248;2023-04-03T09:30:17;13.10;72.60
43671;DHT22;29267;50.906;7.248;2023-04-03T09:32:46;13.40;68.70
43671;DHT22;29267;50.906;7.248;2023-04-03T09:35:22;13.80;68.90
43671;DHT22;29267;50.906;7.248;2023-04-03T09:37:51;14.10;65.50
43671;DHT22;29267;50.906;7.248;2023-04-03T09:40:42;13.50;62.90
43671;DHT22;29267;50.906;7.248;2023-04-03T09:45:44;12.70;66.10
43671;DHT22;29267;50.906;7.248;2023-04-03T09:50:56;12.10;65.40
43671;DHT22;29267;50.906;7.248;2023-04-03T09:53:31;12.40;67.50
43671;DHT22;29267;50.906;7.248;2023-04-03T09:55:57;12.30;66.70
43671;DHT22;29267;50.906;7.248;2023-04-03T09:58:29;12.30;65.60
43671;DHT22;29267;50.906;7.248;2023-04-03T10:01:00;11.80;65.90
43671;DHT22;29267;50.906;7.248;2023-04-03T10:05:52;10.70;67.90
43671;DHT22;29267;50.906;7.248;2023-04-03T10:08:24;10.40;70.70
43671;DHT22;29267;50.906;7.248;2023-04-03T10:11:17;10.50;70.30
43671;DHT22;29267;50.906;7.248;2023-04-03T10:13:52;10.60;69.60
43671;DHT22;29267;50.906;7.248;2023-04-03T10:16:21;10.60;69.50
43671;DHT22;29267;50.906;7.248;2023-04-03T10:21:48;10.00;68.40
43671;DHT22;29267;50.906;7.248;2023-04-03T10:24:29;10.20;70.30
43671;DHT22;29267;50.906;7.248;2023-04-03T10:26:58;10.30;68.50
43671;DHT22;29267;50.906;7.248;2023-04-03T10:38:42;9.50;67.10
43671;DHT22;29267;50.906;7.248;2023-04-03T10:46:38;9.20;68.60
43671;DHT22;29267;50.906;7.248;2023-04-03T10:51:48;8.60;70.50
43671;DHT22;29267;50.906;7.248;2023-04-03T10:54:29;8.60;67.50
43671;DHT22;29267;50.906;7.248;2023-04-03T10:57:04;8.90;69.90
43671;DHT22;29267;50.906;7.248;2023-04-03T10:59:41;8.90;68.70
43671;DHT22;29267;50.906;7.248;2023-04-03T11:04:39;9.10;69.70
43671;DHT22;29267;50.906;7.248;2023-04-03T11:07:17;9.00;69.40
43671;DHT22;29267;50.906;7.248;2023-04-03T11:09:47;9.10;71.90
43671;DHT22;29267;50.906;7.248;2023-04-03T11:12:32;9.10;68.90
43671;DHT22;29267;50.906;7.248;2023-04-03T11:15:02;8.90;70.10
43671;DHT22;29267;50.906;7.248;2023-04-03T11:17:35;8.90;70.10
43671;DHT22;29267;50.906;7.248;2023-04-03T11:20:19;9.00;71.80
43671;DHT22;29267;50.906;7.248;2023-04-03T11:25:31;9.10;66.70
43671;DHT22;29267;50.906;7.248;2023-04-03T11:28:02;9.20;67.50
43671;DHT22;29267;50.906;7.248;2023-04-03T11:36:17;9.10;70.10
43671;DHT22;29267;50.906;7.248;2023-04-03T11:38:46;9.20;69.40
43671;DHT22;29267;50.906;7.248;2023-04-03T11:41:13;9.10;66.90
43671;DHT22;29267;50.906;7.248;2023-04-03T11:43:56;9.00;65.80
43671;DHT22;29267;50.906;7.248;2023-04-03T11:46:24;8.80;65.60
43671;DHT22;29267;50.906;7.248;2023-04-03T11:52:13;8.90;68.80
43671;DHT22;29267;50.906;7.248;2023-04-03T11:54:58;9.00;68.10
43671;DHT22;29267;50.906;7.248;2023-04-03T11:58:02;8.80;66.20
43671;DHT22;29267;50.906;7.248;2023-04-03T12:19:02;9.00;69.00
43671;DHT22;29267;50.906;7.248;2023-04-03T12:26:44;9.00;67.80
43671;DHT22;29267;50.906;7.248;2023-04-03T12:46:11;8.90;70.10
43671;DHT22;29267;50.906;7.248;2023-04-03T12:48:53;8.90;71.90
43671;DHT22;29267;50.906;7.248;2023-04-03T12:54:12;8.80;71.60
43671;DHT22;29267;50.906;7.248;2023-04-03T12:56:38;8.70;70.90
43671;DHT22;29267;50.906;7.248;2023-04-03T12:59:22;8.90;73.30
43671;DHT22;29267;50.906;7.248;2023-04-03T13:01:58;8.90;72.60
43671;DHT22;29267;50.906;7.248;2023-04-03T13:04:26;8.90;70.80
43671;DHT22;29267;50.906;7.248;2023-04-03T13:06:52;9.00;73.30
43671;DHT22;29267;50.906;7.248;2023-04-03T13:11:51;9.00;69.50
43671;DHT22;29267;50.906;7.248;2023-04-03T13:14:22;9.10;68.80
43671;DHT22;29267;50.906;7.248;2023-04-03T13:17:06;9.10;72.80
43671;DHT22;29267;50.906;7.248;2023-04-03T13:19:35;9.10;70.40
43671;DHT22;29267;50.906;7.248;2023-04-03T13:22:16;9.20;72.00
43671;DHT22;29267;50.906;7.248;2023-04-03T13:24:45;9.20;71.50
43671;DHT22;29267;50.906;7.248;2023-04-03T13:27:12;9.10;71.10
43671;DHT22;29267;50.906;7.248;2023-04-03T13:29:38;8.90;70.30
43671;DHT22;29267;50.906;7.248;2023-04-03T13:32:05;8.90;70.70
43671;DHT22;29267;50.906;7.248;2023-04-03T13:34:41;8.80;70.50
43671;DHT22;29267;50.906;7.248;2023-04-03T13:37:11;8.90;73.20
43671;DHT22;29267;50.906;7.248;2023-04-03T13:39:44;9.00;74.90
43671;DHT22;29267;50.906;7.248;2023-04-03T13:42:23;9.10;73.60
43671;DHT22;29267;50.906;7.248;2023-04-03T13:44:49;9.10;73.20
43671;DHT22;29267;50.906;7.248;2023-04-03T13:47:39;9.00;72.70
43671;DHT22;29267;50.906;7.248;2023-04-03T13:53:00;8.90;71.50
43671;DHT22;29267;50.906;7.248;2023-04-03T13:55:34;8.90;72.10
43671;DHT22;29267;50.906;7.248;2023-04-03T14:00:54;8.90;71.40
43671;DHT22;29267;50.906;7.248;2023-04-03T14:03:30;9.00;72.20
43671;DHT22;29267;50.906;7.248;2023-04-03T14:05:56;8.90;72.30
43671;DHT22;29267;50.906;7.248;2023-04-03T14:08:22;8.90;73.30
43671;DHT22;29267;50.906;7.248;2023-04-03T14:10:48;9.00;72.10
43671;DHT22;29267;50.906;7.248;2023-04-03T14:13:16;9.00;71.50
43671;DHT22;29267;50.906;7.248;2023-04-03T14:15:42;9.10;73.40
43671;DHT22;29267;50.906;7.248;2023-04-03T14:18:12;9.10;72.90
43671;DHT22;29267;50.906;7.248;2023-04-03T14:20:38;9.10;73.10
43671;DHT22;29267;50.906;7.248;2023-04-03T14:23:04;9.00;70.80
43671;DHT22;29267;50.906;7.248;2023-04-03T14:25:29;8.90;72.00
43671;DHT22;29267;50.906;7.248;2023-04-03T14:27:55;8.90;72.70
43671;DHT22;29267;50.906;7.248;2023-04-03T14:30:31;9.00;73.70
43671;DHT22;29267;50.906;7.248;2023-04-03T14:32:58;9.00;72.70
43671;DHT22;29267;50.906;7.248;2023-04-03T14:35:25;9.00;72.70
43671;DHT22;29267;50.906;7.248;2023-04-03T14:37:52;9.10;75.00
43671;DHT22;29267;50.906;7.248;2023-04-03T14:40:22;9.20;73.90
43671;DHT22;29267;50.906;7.248;2023-04-03T14:42:49;9.10;73.40
43671;DHT22;29267;50.906;7.248;2023-04-03T14:45:15;9.00;72.60
43671;DHT22;29267;50.906;7.248;2023-04-03T14:47:53;9.10;73.80
43671;DHT22;29267;50.906;7.248;2023-04-03T14:50:22;9.10;71.40
43671;DHT22;29267;50.906;7.248;2023-04-03T14:52:51;9.00;72.40
43671;DHT22;29267;50.906;7.248;2023-04-03T14:55:18;9.00;75.00
43671;DHT22;29267;50.906;7.248;2023-04-03T14:57:45;9.00;73.00
43671;DHT22;29267;50.906;7.248;2023-04-03T15:00:14;9.00;75.50
43671;DHT22;29267;50.906;7.248;2023-04-03T15:02:40;9.00;73.00
43671;DHT22;29267;50.906;7.248;2023-04-03T15:05:08;9.00;73.00
43671;DHT22;29267;50.906;7.248;2023-04-03T15:07:57;9.00;73.40
43671;DHT22;29267;50.906;7.248;2023-04-03T15:10:28;8.90;73.40
43671;DHT22;29267;50.906;7.248;2023-04-03T15:12:55;8.90;75.60
43671;DHT22;29267;50.906;7.248;2023-04-03T15:15:22;8.90;75.00
43671;DHT22;29267;50.906;7.248;2023-04-03T15:17:52;8.90;72.40
43671;DHT22;29267;50.906;7.248;2023-04-03T15:20:25;8.90;75.90
43671;DHT22;29267;50.906;7.248;2023-04-03T15:22:51;8.80;72.60
43671;DHT22;29267;50.906;7.248;2023-04-03T15:25:17;8.80;76.40
43671;DHT22;29267;50.906;7.248;2023-04-03T15:27:44;8.80;73.90
43671;DHT22;29267;50.906;7.248;2023-04-03T15:30:15;8.80;72.50
43671;DHT22;29267;50.906;7.248;2023-04-03T15:32:41;8.70;72.00
43671;DHT22;29267;50.906;7.248;2023-04-03T15:35:07;8.70;73.80
43671;DHT22;29267;50.906;7.248;2023-04-03T15:37:33;8.70;73.30
43671;DHT22;29267;50.906;7.248;2023-04-03T15:39:58;8.70;73.40
43671;DHT22;29267;50.906;7.248;2023-04-03T15:42:24;8.60;73.50
43671;DHT22;29267;50.906;7.248;2023-04-03T15:44:49;8.60;72.40
43671;DHT22;29267;50.906;7.248;2023-04-03T15:47:15;8.60;76.50
43671;DHT22;29267;50.906;7.248;2023-04-03T15:49:41;8.60;76.20
43671;DHT22;29267;50.906;7.248;2023-04-03T15:52:06;8.60;77.10
43671;DHT22;29267;50.906;7.248;2023-04-03T15:54:32;8.60;75.00
43671;DHT22;29267;50.906;7.248;2023-04-03T15:56:58;8.60;76.30
43671;DHT22;29267;50.906;7.248;2023-04-03T15:59:23;8.60;76.70
43671;DHT22;29267;50.906;7.248;2023-04-03T16:01:51;8.50;74.50
43671;DHT22;29267;50.906;7.248;2023-04-03T16:04:16;8.50;73.70
43671;DHT22;29267;50.906;7.248;2023-04-03T16:06:43;8.50;74.50
43671;DHT22;29267;50.906;7.248;2023-04-03T16:09:09;8.50;75.00
43671;DHT22;29267;50.906;7.248;2023-04-03T16:11:35;8.50;73.30
43671;DHT22;29267;50.906;7.248;2023-04-03T16:14:02;8.50;74.40
43671;DHT22;29267;50.906;7.248;2023-04-03T16:16:28;8.40;74.00
43671;DHT22;29267;50.906;7.248;2023-04-03T16:18:55;8.40;74.50
43671;DHT22;29267;50.906;7.248;2023-04-03T16:21:21;8.30;74.60
43671;DHT22;29267;50.906;7.248;2023-04-03T16:23:47;8.30;76.50
43671;DHT22;29267;50.906;7.248;2023-04-03T16:26:14;8.30;75.10
43671;DHT22;29267;50.906;7.248;2023-04-03T16:28:40;8.30;75.50
43671;DHT22;29267;50.906;7.248;2023-04-03T16:31:06;8.30;75.30
43671;DHT22;29267;50.906;7.248;2023-04-03T16:33:32;8.20;76.80
43671;DHT22;29267;50.906;7.248;2023-04-03T16:35:58;8.20;77.20
43671;DHT22;29267;50.906;7.248;2023-04-03T16:38:24;8.20;76.60
43671;DHT22;29267;50.906;7.248;2023-04-03T16:40:49;8.00;77.40
43671;DHT22;29267;50.906;7.248;2023-04-03T16:43:15;8.00;76.30
43671;DHT22;29267;50.906;7.248;2023-04-03T16:45:41;8.00;77.60
43671;DHT22;29267;50.906;7.248;2023-04-03T16:48:08;7.90;80.40
43671;DHT22;29267;50.906;7.248;2023-04-03T16:50:33;7.90;76.00
43671;DHT22;29267;50.906;7.248;2023-04-03T16:52:59;7.90;76.60
43671;DHT22;29267;50.906;7.248;2023-04-03T16:55:25;7.90;79.40
43671;DHT22;29267;50.906;7.248;2023-04-03T16:57:50;7.80;79.10
43671;DHT22;29267;50.906;7.248;2023-04-03T17:00:16;7.70;78.70
43671;DHT22;29267;50.906;7.248;2023-04-03T17:02:42;7.70;78.90
43671;DHT22;29267;50.906;7.248;2023-04-03T17:05:08;7.70;78.30
43671;DHT22;29267;50.906;7.248;2023-04-03T17:07:33;7.60;78.10
43671;DHT22;29267;50.906;7.248;2023-04-03T17:10:00;7.50;80.70
43671;DHT22;29267;50.906;7.248;2023-04-03T17:12:25;7.50;78.70
43671;DHT22;29267;50.906;7.248;2023-04-03T17:14:51;7.40;78.10
43671;DHT22;29267;50.906;7.248;2023-04-03T17:17:22;7.40;77.30
43671;DHT22;29267;50.906;7.248;2023-04-03T17:19:49;7.40;79.70
43671;DHT22;29267;50.906;7.248;2023-04-03T17:22:15;7.20;80.20
43671;DHT22;29267;50.906;7.248;2023-04-03T17:24:41;7.20;78.70
43671;DHT22;29267;50.906;7.248;2023-04-03T17:27:07;7.20;80.50
43671;DHT22;29267;50.906;7.248;2023-04-03T17:29:33;7.10;80.90
43671;DHT22;29267;50.906;7.248;2023-04-03T17:31:58;7.00;80.90
43671;DHT22;29267;50.906;7.248;2023-04-03T17:34:24;7.00;81.60
43671;DHT22;29267;50.906;7.248;2023-04-03T17:36:49;6.80;81.70
43671;DHT22;29267;50.906;7.248;2023-04-03T17:39:15;6.80;81.30
43671;DHT22;29267;50.906;7.248;2023-04-03T17:41:41;6.70;82.80